Terminal Aerodrome Forecast
Issued by NWS

Home | Current Version | Previous Version | Text Only | Print | Product List | Glossary On
Versions: 1 2 3 4 5 6 7 8 9 10 11 12 13 14 15 16 17 18 19 20 21 22 23 24 25 26
989
FTUS43 KGLD 230540
TAFMCK
TAF
KMCK 230540Z 2306/2406 08009KT P6SM SCT200
     FM230900 09018G25KT 5SM BR OVC008
     FM231500 08018G25KT P6SM OVC015
     FM231800 07020G28KT P6SM VCSH BKN010
     FM232100 04020G28KT 3SM -SHRA OVC008
     FM240000 36019G28KT 2SM -SHSN BKN008
     FM240400 34021G30KT 5SM -SHSN BKN010=

USA.gov is the U.S. government's official web portal to all federal, state and local government web resources and services.